sensor_id;sensor_type;location;lat;lon;timestamp;P1;durP1;ratioP1;P2;durP2;ratioP2
55224;SDS011;41091;49.400;8.684;2022-11-15T00:00:30;4.35;;;2.75;;
55224;SDS011;41091;49.400;8.684;2022-11-15T00:02:56;3.78;;;2.10;;
55224;SDS011;41091;49.400;8.684;2022-11-15T00:05:23;8.07;;;3.35;;
55224;SDS011;41091;49.400;8.684;2022-11-15T00:07:51;4.28;;;2.40;;
55224;SDS011;41091;49.400;8.684;2022-11-15T00:10:16;2.63;;;2.28;;
55224;SDS011;41091;49.400;8.684;2022-11-15T00:12:44;5.55;;;3.28;;
55224;SDS011;41091;49.400;8.684;2022-11-15T00:15:09;2.80;;;2.60;;
55224;SDS011;41091;49.400;8.684;2022-11-15T00:17:37;3.45;;;2.40;;
55224;SDS011;41091;49.400;8.684;2022-11-15T00:20:02;3.92;;;2.80;;
55224;SDS011;41091;49.400;8.684;2022-11-15T00:22:32;3.08;;;2.55;;
55224;SDS011;41091;49.400;8.684;2022-11-15T00:24:58;9.00;;;2.13;;
55224;SDS011;41091;49.400;8.684;2022-11-15T00:27:23;5.20;;;2.20;;
55224;SDS011;41091;49.400;8.684;2022-11-15T00:29:48;5.18;;;2.83;;
55224;SDS011;41091;49.400;8.684;2022-11-15T00:32:14;6.80;;;2.50;;
55224;SDS011;41091;49.400;8.684;2022-11-15T00:34:39;2.72;;;2.33;;
55224;SDS011;41091;49.400;8.684;2022-11-15T00:37:07;2.35;;;2.25;;
55224;SDS011;41091;49.400;8.684;2022-11-15T00:39:32;3.95;;;2.30;;
55224;SDS011;41091;49.400;8.684;2022-11-15T00:41:57;3.72;;;2.38;;
55224;SDS011;41091;49.400;8.684;2022-11-15T00:44:23;7.28;;;2.53;;
55224;SDS011;41091;49.400;8.684;2022-11-15T00:46:48;4.88;;;2.45;;
55224;SDS011;41091;49.400;8.684;2022-11-15T00:49:16;2.70;;;2.50;;
55224;SDS011;41091;49.400;8.684;2022-11-15T00:51:41;2.85;;;2.50;;
55224;SDS011;41091;49.400;8.684;2022-11-15T00:54:06;3.58;;;2.70;;
55224;SDS011;41091;49.400;8.684;2022-11-15T00:56:32;5.20;;;3.70;;
55224;SDS011;41091;49.400;8.684;2022-11-15T00:58:57;3.65;;;2.55;;
55224;SDS011;41091;49.400;8.684;2022-11-15T01:01:24;2.60;;;2.40;;
55224;SDS011;41091;49.400;8.684;2022-11-15T01:03:52;2.80;;;2.70;;
55224;SDS011;41091;49.400;8.684;2022-11-15T01:06:18;3.85;;;2.08;;
55224;SDS011;41091;49.400;8.684;2022-11-15T01:08:43;8.55;;;2.60;;
55224;SDS011;41091;49.400;8.684;2022-11-15T01:11:11;7.68;;;2.63;;
55224;SDS011;41091;49.400;8.684;2022-11-15T01:13:39;2.58;;;2.38;;
55224;SDS011;41091;49.400;8.684;2022-11-15T01:16:08;3.80;;;2.70;;
55224;SDS011;41091;49.400;8.684;2022-11-15T01:18:42;2.70;;;2.47;;
55224;SDS011;41091;49.400;8.684;2022-11-15T01:21:10;1.88;;;1.75;;
55224;SDS011;41091;49.400;8.684;2022-11-15T01:23:39;4.10;;;2.72;;
55224;SDS011;41091;49.400;8.684;2022-11-15T01:26:05;4.00;;;2.50;;
55224;SDS011;41091;49.400;8.684;2022-11-15T01:28:36;2.75;;;2.30;;
55224;SDS011;41091;49.400;8.684;2022-11-15T01:31:03;2.75;;;2.55;;
55224;SDS011;41091;49.400;8.684;2022-11-15T01:33:30;2.75;;;2.60;;
55224;SDS011;41091;49.400;8.684;2022-11-15T01:35:58;2.42;;;2.28;;
55224;SDS011;41091;49.400;8.684;2022-11-15T01:38:23;2.40;;;2.22;;
55224;SDS011;41091;49.400;8.684;2022-11-15T01:40:49;3.00;;;2.33;;
55224;SDS011;41091;49.400;8.684;2022-11-15T01:45:51;3.75;;;2.20;;
55224;SDS011;41091;49.400;8.684;2022-11-15T01:48:19;4.70;;;2.10;;
55224;SDS011;41091;49.400;8.684;2022-11-15T01:50:48;2.47;;;2.30;;
55224;SDS011;41091;49.400;8.684;2022-11-15T01:53:14;3.55;;;2.50;;
55224;SDS011;41091;49.400;8.684;2022-11-15T01:55:40;2.38;;;2.17;;
55224;SDS011;41091;49.400;8.684;2022-11-15T01:58:06;2.80;;;2.60;;
55224;SDS011;41091;49.400;8.684;2022-11-15T02:00:32;2.20;;;2.10;;
55224;SDS011;41091;49.400;8.684;2022-11-15T02:02:57;3.80;;;2.35;;
55224;SDS011;41091;49.400;8.684;2022-11-15T02:05:22;4.38;;;2.50;;
55224;SDS011;41091;49.400;8.684;2022-11-15T02:07:50;3.55;;;2.80;;
55224;SDS011;41091;49.400;8.684;2022-11-15T02:10:23;5.10;;;2.05;;
55224;SDS011;41091;49.400;8.684;2022-11-15T02:12:53;2.58;;;2.38;;
55224;SDS011;41091;49.400;8.684;2022-11-15T02:15:19;2.92;;;2.50;;
55224;SDS011;41091;49.400;8.684;2022-11-15T02:20:31;2.58;;;2.30;;
55224;SDS011;41091;49.400;8.684;2022-11-15T02:31:10;7.43;;;2.40;;
55224;SDS011;41091;49.400;8.684;2022-11-15T02:36:24;4.43;;;2.22;;
55224;SDS011;41091;49.400;8.684;2022-11-15T02:39:03;2.80;;;2.55;;
55224;SDS011;41091;49.400;8.684;2022-11-15T02:41:45;4.30;;;2.88;;
55224;SDS011;41091;49.400;8.684;2022-11-15T02:44:21;2.45;;;2.35;;
55224;SDS011;41091;49.400;8.684;2022-11-15T02:46:58;3.55;;;2.70;;
55224;SDS011;41091;49.400;8.684;2022-11-15T02:52:13;5.50;;;2.17;;
55224;SDS011;41091;49.400;8.684;2022-11-15T02:54:52;2.85;;;2.55;;
55224;SDS011;41091;49.400;8.684;2022-11-15T02:57:23;5.28;;;2.28;;
55224;SDS011;41091;49.400;8.684;2022-11-15T03:00:17;10.90;;;2.50;;
55224;SDS011;41091;49.400;8.684;2022-11-15T03:05:44;3.73;;;2.47;;
55224;SDS011;41091;49.400;8.684;2022-11-15T03:11:12;2.70;;;2.33;;
55224;SDS011;41091;49.400;8.684;2022-11-15T03:16:27;2.45;;;2.25;;
55224;SDS011;41091;49.400;8.684;2022-11-15T03:19:07;2.67;;;2.47;;
55224;SDS011;41091;49.400;8.684;2022-11-15T03:21:59;2.30;;;2.10;;
55224;SDS011;41091;49.400;8.684;2022-11-15T03:24:27;2.35;;;2.10;;
55224;SDS011;41091;49.400;8.684;2022-11-15T03:27:00;7.15;;;2.28;;
55224;SDS011;41091;49.400;8.684;2022-11-15T03:29:34;3.67;;;2.35;;
55224;SDS011;41091;49.400;8.684;2022-11-15T03:32:03;3.42;;;2.13;;
55224;SDS011;41091;49.400;8.684;2022-11-15T03:34:44;2.63;;;2.42;;
55224;SDS011;41091;49.400;8.684;2022-11-15T03:37:13;3.80;;;2.00;;
55224;SDS011;41091;49.400;8.684;2022-11-15T03:39:39;2.88;;;2.33;;
55224;SDS011;41091;49.400;8.684;2022-11-15T03:44:47;4.05;;;1.90;;
55224;SDS011;41091;49.400;8.684;2022-11-15T03:49:50;1.90;;;1.70;;
55224;SDS011;41091;49.400;8.684;2022-11-15T03:52:21;13.07;;;2.55;;
55224;SDS011;41091;49.400;8.684;2022-11-15T03:54:47;2.53;;;2.30;;
55224;SDS011;41091;49.400;8.684;2022-11-15T03:57:16;2.90;;;2.40;;
55224;SDS011;41091;49.400;8.684;2022-11-15T03:59:41;2.65;;;2.17;;
55224;SDS011;41091;49.400;8.684;2022-11-15T04:02:07;3.10;;;1.88;;
55224;SDS011;41091;49.400;8.684;2022-11-15T04:04:32;2.97;;;1.80;;
55224;SDS011;41091;49.400;8.684;2022-11-15T04:06:57;2.03;;;1.90;;
55224;SDS011;41091;49.400;8.684;2022-11-15T04:09:23;5.20;;;2.50;;
55224;SDS011;41091;49.400;8.684;2022-11-15T04:11:48;2.20;;;2.00;;
55224;SDS011;41091;49.400;8.684;2022-11-15T04:14:13;6.57;;;2.35;;
55224;SDS011;41091;49.400;8.684;2022-11-15T04:16:41;2.53;;;2.33;;
55224;SDS011;41091;49.400;8.684;2022-11-15T04:19:06;2.17;;;1.63;;
55224;SDS011;41091;49.400;8.684;2022-11-15T04:21:50;4.22;;;2.15;;
55224;SDS011;41091;49.400;8.684;2022-11-15T04:24:34;2.33;;;2.17;;
55224;SDS011;41091;49.400;8.684;2022-11-15T04:27:02;2.53;;;2.03;;
55224;SDS011;41091;49.400;8.684;2022-11-15T04:29:27;4.22;;;2.22;;
55224;SDS011;41091;49.400;8.684;2022-11-15T04:32:02;6.07;;;2.25;;
55224;SDS011;41091;49.400;8.684;2022-11-15T04:34:28;3.17;;;2.35;;
55224;SDS011;41091;49.400;8.684;2022-11-15T04:36:56;2.20;;;2.00;;
55224;SDS011;41091;49.400;8.684;2022-11-15T04:39:37;2.55;;;2.17;;
55224;SDS011;41091;49.400;8.684;2022-11-15T04:42:04;3.00;;;1.95;;
55224;SDS011;41091;49.400;8.684;2022-11-15T04:44:30;2.60;;;1.90;;
55224;SDS011;41091;49.400;8.684;2022-11-15T04:46:57;2.80;;;2.33;;
55224;SDS011;41091;49.400;8.684;2022-11-15T04:49:22;2.13;;;2.03;;
55224;SDS011;41091;49.400;8.684;2022-11-15T04:51:50;2.15;;;1.80;;
55224;SDS011;41091;49.400;8.684;2022-11-15T04:54:16;1.92;;;1.77;;
55224;SDS011;41091;49.400;8.684;2022-11-15T04:56:41;2.17;;;1.80;;
55224;SDS011;41091;49.400;8.684;2022-11-15T04:59:09;2.10;;;2.00;;
55224;SDS011;41091;49.400;8.684;2022-11-15T05:01:34;3.10;;;1.67;;
55224;SDS011;41091;49.400;8.684;2022-11-15T05:04:00;2.17;;;1.95;;
55224;SDS011;41091;49.400;8.684;2022-11-15T05:06:43;2.05;;;1.70;;
55224;SDS011;41091;49.400;8.684;2022-11-15T05:09:09;2.90;;;2.25;;
55224;SDS011;41091;49.400;8.684;2022-11-15T05:11:35;4.57;;;2.42;;
55224;SDS011;41091;49.400;8.684;2022-11-15T05:14:02;1.73;;;1.63;;
55224;SDS011;41091;49.400;8.684;2022-11-15T05:16:30;2.28;;;2.08;;
55224;SDS011;41091;49.400;8.684;2022-11-15T05:18:55;7.50;;;1.95;;
55224;SDS011;41091;49.400;8.684;2022-11-15T05:21:23;3.05;;;2.22;;
55224;SDS011;41091;49.400;8.684;2022-11-15T05:23:51;4.03;;;2.30;;
55224;SDS011;41091;49.400;8.684;2022-11-15T05:26:17;4.63;;;2.08;;
55224;SDS011;41091;49.400;8.684;2022-11-15T05:28:45;5.22;;;2.08;;
55224;SDS011;41091;49.400;8.684;2022-11-15T05:31:11;3.22;;;2.10;;
55224;SDS011;41091;49.400;8.684;2022-11-15T05:33:39;2.20;;;2.00;;
55224;SDS011;41091;49.400;8.684;2022-11-15T05:36:05;5.75;;;2.10;;
55224;SDS011;41091;49.400;8.684;2022-11-15T05:38:35;3.75;;;2.03;;
55224;SDS011;41091;49.400;8.684;2022-11-15T05:41:02;2.92;;;2.30;;
55224;SDS011;41091;49.400;8.684;2022-11-15T05:43:31;5.97;;;2.00;;
55224;SDS011;41091;49.400;8.684;2022-11-15T05:46:02;4.72;;;2.72;;
55224;SDS011;41091;49.400;8.684;2022-11-15T05:48:31;2.60;;;2.40;;
55224;SDS011;41091;49.400;8.684;2022-11-15T05:51:02;2.45;;;2.35;;
55224;SDS011;41091;49.400;8.684;2022-11-15T05:53:29;5.78;;;2.60;;
55224;SDS011;41091;49.400;8.684;2022-11-15T05:55:57;2.28;;;2.15;;
55224;SDS011;41091;49.400;8.684;2022-11-15T05:58:22;6.50;;;2.55;;
55224;SDS011;41091;49.400;8.684;2022-11-15T06:00:50;6.72;;;2.60;;
55224;SDS011;41091;49.400;8.684;2022-11-15T06:03:15;3.60;;;2.58;;
55224;SDS011;41091;49.400;8.684;2022-11-15T06:05:45;5.07;;;2.92;;
55224;SDS011;41091;49.400;8.684;2022-11-15T06:08:12;6.18;;;2.42;;
55224;SDS011;41091;49.400;8.684;2022-11-15T06:10:38;4.90;;;2.85;;
55224;SDS011;41091;49.400;8.684;2022-11-15T06:13:03;13.05;;;2.80;;
55224;SDS011;41091;49.400;8.684;2022-11-15T06:15:32;7.03;;;2.58;;
55224;SDS011;41091;49.400;8.684;2022-11-15T06:17:59;2.78;;;2.58;;
55224;SDS011;41091;49.400;8.684;2022-11-15T06:20:25;5.07;;;2.92;;
55224;SDS011;41091;49.400;8.684;2022-11-15T06:22:57;2.92;;;2.70;;
55224;SDS011;41091;49.400;8.684;2022-11-15T06:25:23;4.47;;;4.05;;
55224;SDS011;41091;49.400;8.684;2022-11-15T06:27:52;11.35;;;3.25;;
55224;SDS011;41091;49.400;8.684;2022-11-15T06:30:18;8.30;;;2.92;;
55224;SDS011;41091;49.400;8.684;2022-11-15T06:32:44;3.00;;;2.28;;
55224;SDS011;41091;49.400;8.684;2022-11-15T06:35:12;4.05;;;2.50;;
55224;SDS011;41091;49.400;8.684;2022-11-15T06:37:41;3.20;;;2.55;;
55224;SDS011;41091;49.400;8.684;2022-11-15T06:40:09;3.60;;;3.03;;
55224;SDS011;41091;49.400;8.684;2022-11-15T06:42:37;8.02;;;3.78;;
55224;SDS011;41091;49.400;8.684;2022-11-15T06:45:03;10.00;;;6.22;;
55224;SDS011;41091;49.400;8.684;2022-11-15T06:47:30;7.15;;;5.30;;
55224;SDS011;41091;49.400;8.684;2022-11-15T06:49:55;5.90;;;5.18;;
55224;SDS011;41091;49.400;8.684;2022-11-15T06:52:20;7.88;;;4.40;;
55224;SDS011;41091;49.400;8.684;2022-11-15T06:54:46;5.13;;;4.30;;
55224;SDS011;41091;49.400;8.684;2022-11-15T06:57:12;15.73;;;5.07;;
55224;SDS011;41091;49.400;8.684;2022-11-15T06:59:39;8.18;;;4.07;;
55224;SDS011;41091;49.400;8.684;2022-11-15T07:02:05;7.22;;;3.50;;
55224;SDS011;41091;49.400;8.684;2022-11-15T07:04:30;6.75;;;3.70;;
55224;SDS011;41091;49.400;8.684;2022-11-15T07:06:55;3.60;;;3.30;;
55224;SDS011;41091;49.400;8.684;2022-11-15T07:09:21;3.75;;;2.83;;
55224;SDS011;41091;49.400;8.684;2022-11-15T07:11:51;4.93;;;3.65;;
55224;SDS011;41091;49.400;8.684;2022-11-15T07:14:18;4.97;;;3.33;;
55224;SDS011;41091;49.400;8.684;2022-11-15T07:16:46;6.22;;;3.28;;
55224;SDS011;41091;49.400;8.684;2022-11-15T07:19:11;5.18;;;2.97;;
55224;SDS011;41091;49.400;8.684;2022-11-15T07:21:36;4.00;;;3.67;;
55224;SDS011;41091;49.400;8.684;2022-11-15T07:24:02;3.55;;;2.70;;
55224;SDS011;41091;49.400;8.684;2022-11-15T07:26:30;3.20;;;2.90;;
55224;SDS011;41091;49.400;8.684;2022-11-15T07:28:55;5.38;;;2.92;;
55224;SDS011;41091;49.400;8.684;2022-11-15T07:31:23;5.30;;;2.95;;
55224;SDS011;41091;49.400;8.684;2022-11-15T07:33:48;3.33;;;3.03;;
55224;SDS011;41091;49.400;8.684;2022-11-15T07:36:14;4.72;;;2.67;;
55224;SDS011;41091;49.400;8.684;2022-11-15T07:38:39;3.60;;;3.30;;
55224;SDS011;41091;49.400;8.684;2022-11-15T07:41:05;3.08;;;2.80;;
55224;SDS011;41091;49.400;8.684;2022-11-15T07:43:31;6.22;;;3.05;;
55224;SDS011;41091;49.400;8.684;2022-11-15T07:45:58;5.90;;;4.43;;
55224;SDS011;41091;49.400;8.684;2022-11-15T07:48:27;6.57;;;4.03;;
55224;SDS011;41091;49.400;8.684;2022-11-15T07:50:52;5.35;;;3.80;;
55224;SDS011;41091;49.400;8.684;2022-11-15T07:53:22;6.13;;;4.43;;
55224;SDS011;41091;49.400;8.684;2022-11-15T07:55:48;3.42;;;3.13;;
55224;SDS011;41091;49.400;8.684;2022-11-15T07:58:15;3.10;;;2.80;;
55224;SDS011;41091;49.400;8.684;2022-11-15T08:00:46;3.25;;;2.95;;
55224;SDS011;41091;49.400;8.684;2022-11-15T08:03:15;5.88;;;2.55;;
55224;SDS011;41091;49.400;8.684;2022-11-15T08:05:41;4.97;;;2.67;;
55224;SDS011;41091;49.400;8.684;2022-11-15T08:08:10;4.55;;;1.85;;
55224;SDS011;41091;49.400;8.684;2022-11-15T08:10:36;3.47;;;2.00;;
55224;SDS011;41091;49.400;8.684;2022-11-15T08:15:28;1.67;;;1.05;;
55224;SDS011;41091;49.400;8.684;2022-11-15T08:17:56;3.13;;;1.65;;
55224;SDS011;41091;49.400;8.684;2022-11-15T08:20:23;7.07;;;1.67;;
55224;SDS011;41091;49.400;8.684;2022-11-15T08:25:18;5.00;;;2.92;;
55224;SDS011;41091;49.400;8.684;2022-11-15T08:27:44;2.47;;;1.92;;
55224;SDS011;41091;49.400;8.684;2022-11-15T08:30:09;4.38;;;1.45;;
55224;SDS011;41091;49.400;8.684;2022-11-15T08:32:36;1.23;;;1.23;;
55224;SDS011;41091;49.400;8.684;2022-11-15T08:35:01;1.42;;;1.33;;
55224;SDS011;41091;49.400;8.684;2022-11-15T08:37:26;1.98;;;1.50;;
55224;SDS011;41091;49.400;8.684;2022-11-15T08:39:52;2.47;;;1.63;;
55224;SDS011;41091;49.400;8.684;2022-11-15T08:42:19;1.77;;;1.10;;
55224;SDS011;41091;49.400;8.684;2022-11-15T08:44:49;1.48;;;1.17;;
55224;SDS011;41091;49.400;8.684;2022-11-15T08:47:14;2.55;;;2.30;;
55224;SDS011;41091;49.400;8.684;2022-11-15T08:49:40;1.58;;;1.40;;
55224;SDS011;41091;49.400;8.684;2022-11-15T08:52:07;2.33;;;1.83;;
55224;SDS011;41091;49.400;8.684;2022-11-15T08:54:33;1.83;;;1.73;;
55224;SDS011;41091;49.400;8.684;2022-11-15T08:56:58;2.47;;;1.67;;
55224;SDS011;41091;49.400;8.684;2022-11-15T08:59:23;9.02;;;1.80;;
55224;SDS011;41091;49.400;8.684;2022-11-15T09:01:49;3.53;;;1.80;;
55224;SDS011;41091;49.400;8.684;2022-11-15T09:04:16;1.50;;;1.40;;
55224;SDS011;41091;49.400;8.684;2022-11-15T09:06:42;3.10;;;1.85;;
55224;SDS011;41091;49.400;8.684;2022-11-15T09:09:07;2.38;;;1.67;;
55224;SDS011;41091;49.400;8.684;2022-11-15T09:11:32;1.27;;;1.27;;
55224;SDS011;41091;49.400;8.684;2022-11-15T09:14:00;5.20;;;1.83;;
55224;SDS011;41091;49.400;8.684;2022-11-15T09:16:26;2.15;;;1.95;;
55224;SDS011;41091;49.400;8.684;2022-11-15T09:18:52;1.60;;;1.50;;
55224;SDS011;41091;49.400;8.684;2022-11-15T09:21:20;1.60;;;1.50;;
55224;SDS011;41091;49.400;8.684;2022-11-15T09:23:45;2.40;;;1.40;;
55224;SDS011;41091;49.400;8.684;2022-11-15T09:26:10;2.45;;;1.83;;
55224;SDS011;41091;49.400;8.684;2022-11-15T09:28:40;1.65;;;1.15;;
55224;SDS011;41091;49.400;8.684;2022-11-15T09:31:08;2.35;;;1.40;;
55224;SDS011;41091;49.400;8.684;2022-11-15T09:33:36;5.32;;;1.90;;
55224;SDS011;41091;49.400;8.684;2022-11-15T09:36:05;3.10;;;1.65;;
55224;SDS011;41091;49.400;8.684;2022-11-15T09:38:32;2.78;;;1.63;;
55224;SDS011;41091;49.400;8.684;2022-11-15T09:46:16;1.73;;;1.63;;
55224;SDS011;41091;49.400;8.684;2022-11-15T09:49:02;1.90;;;1.80;;
55224;SDS011;41091;49.400;8.684;2022-11-15T09:56:38;3.90;;;2.00;;
55224;SDS011;41091;49.400;8.684;2022-11-15T09:59:22;3.15;;;1.60;;
55224;SDS011;41091;49.400;8.684;2022-11-15T10:02:08;3.05;;;1.75;;
55224;SDS011;41091;49.400;8.684;2022-11-15T10:04:36;2.08;;;1.55;;
55224;SDS011;41091;49.400;8.684;2022-11-15T10:07:03;2.40;;;1.75;;
55224;SDS011;41091;49.400;8.684;2022-11-15T10:09:37;1.77;;;1.30;;
55224;SDS011;41091;49.400;8.684;2022-11-15T10:12:07;2.33;;;1.17;;
55224;SDS011;41091;49.400;8.684;2022-11-15T10:14:35;1.75;;;1.38;;
55224;SDS011;41091;49.400;8.684;2022-11-15T10:17:06;1.90;;;1.80;;
55224;SDS011;41091;49.400;8.684;2022-11-15T10:25:12;4.93;;;1.92;;
55224;SDS011;41091;49.400;8.684;2022-11-15T10:27:42;3.83;;;2.00;;
55224;SDS011;41091;49.400;8.684;2022-11-15T10:30:11;4.75;;;2.03;;
55224;SDS011;41091;49.400;8.684;2022-11-15T10:32:38;8.35;;;2.20;;
55224;SDS011;41091;49.400;8.684;2022-11-15T10:35:25;1.95;;;1.80;;
55224;SDS011;41091;49.400;8.684;2022-11-15T10:38:07;5.25;;;1.90;;
55224;SDS011;41091;49.400;8.684;2022-11-15T10:40:36;19.42;;;1.83;;
55224;SDS011;41091;49.400;8.684;2022-11-15T10:45:35;2.08;;;1.90;;
55224;SDS011;41091;49.400;8.684;2022-11-15T10:50:42;1.65;;;1.52;;
55224;SDS011;41091;49.400;8.684;2022-11-15T10:55:49;5.30;;;1.85;;
55224;SDS011;41091;49.400;8.684;2022-11-15T11:01:05;1.50;;;1.40;;
55224;SDS011;41091;49.400;8.684;2022-11-15T11:03:35;3.47;;;3.17;;
55224;SDS011;41091;49.400;8.684;2022-11-15T11:06:12;12.10;;;5.15;;
55224;SDS011;41091;49.400;8.684;2022-11-15T11:08:39;3.20;;;2.60;;
55224;SDS011;41091;49.400;8.684;2022-11-15T11:11:10;4.32;;;1.75;;
55224;SDS011;41091;49.400;8.684;2022-11-15T11:13:37;1.98;;;1.88;;
55224;SDS011;41091;49.400;8.684;2022-11-15T11:19:21;5.05;;;1.55;;
55224;SDS011;41091;49.400;8.684;2022-11-15T11:22:04;3.38;;;1.55;;
55224;SDS011;41091;49.400;8.684;2022-11-15T11:24:38;1.70;;;1.52;;
55224;SDS011;41091;49.400;8.684;2022-11-15T11:27:13;2.55;;;2.10;;
55224;SDS011;41091;49.400;8.684;2022-11-15T11:51:06;1.30;;;1.23;;
55224;SDS011;41091;49.400;8.684;2022-11-15T11:53:49;1.45;;;1.35;;
55224;SDS011;41091;49.400;8.684;2022-11-15T11:56:26;5.75;;;1.30;;
55224;SDS011;41091;49.400;8.684;2022-11-15T11:58:54;2.38;;;1.17;;
55224;SDS011;41091;49.400;8.684;2022-11-15T12:01:24;1.30;;;1.20;;
55224;SDS011;41091;49.400;8.684;2022-11-15T12:11:47;4.70;;;1.65;;
55224;SDS011;41091;49.400;8.684;2022-11-15T12:14:23;2.08;;;1.70;;
55224;SDS011;41091;49.400;8.684;2022-11-15T12:16:52;4.75;;;1.55;;
55224;SDS011;41091;49.400;8.684;2022-11-15T12:19:18;1.70;;;1.55;;
55224;SDS011;41091;49.400;8.684;2022-11-15T12:21:51;1.45;;;1.35;;
55224;SDS011;41091;49.400;8.684;2022-11-15T12:27:00;1.52;;;1.42;;
55224;SDS011;41091;49.400;8.684;2022-11-15T12:29:41;1.63;;;1.48;;
55224;SDS011;41091;49.400;8.684;2022-11-15T12:32:30;1.45;;;1.35;;
55224;SDS011;41091;49.400;8.684;2022-11-15T12:34:58;2.65;;;1.80;;
55224;SDS011;41091;49.400;8.684;2022-11-15T12:44:58;1.33;;;1.00;;
55224;SDS011;41091;49.400;8.684;2022-11-15T12:47:25;1.70;;;1.23;;
55224;SDS011;41091;49.400;8.684;2022-11-15T12:49:53;1.48;;;1.05;;
55224;SDS011;41091;49.400;8.684;2022-11-15T12:52:19;2.25;;;0.90;;
55224;SDS011;41091;49.400;8.684;2022-11-15T12:54:52;2.08;;;0.98;;
55224;SDS011;41091;49.400;8.684;2022-11-15T12:59:51;3.10;;;1.08;;
55224;SDS011;41091;49.400;8.684;2022-11-15T13:02:30;1.13;;;0.82;;
55224;SDS011;41091;49.400;8.684;2022-11-15T13:30:48;2.35;;;1.40;;
55224;SDS011;41091;49.400;8.684;2022-11-15T13:33:20;4.15;;;1.83;;
55224;SDS011;41091;49.400;8.684;2022-11-15T13:35:49;2.13;;;1.35;;
55224;SDS011;41091;49.400;8.684;2022-11-15T13:40:52;1.38;;;1.30;;
55224;SDS011;41091;49.400;8.684;2022-11-15T13:48:30;2.17;;;1.10;;
55224;SDS011;41091;49.400;8.684;2022-11-15T13:50:56;9.00;;;1.50;;
55224;SDS011;41091;49.400;8.684;2022-11-15T13:53:22;1.95;;;1.27;;
55224;SDS011;41091;49.400;8.684;2022-11-15T13:55:47;5.45;;;2.33;;
55224;SDS011;41091;49.400;8.684;2022-11-15T13:58:15;3.15;;;1.20;;
55224;SDS011;41091;49.400;8.684;2022-11-15T14:00:41;2.08;;;1.10;;
55224;SDS011;41091;49.400;8.684;2022-11-15T14:03:30;5.60;;;1.27;;
55224;SDS011;41091;49.400;8.684;2022-11-15T14:06:10;7.13;;;1.65;;
55224;SDS011;41091;49.400;8.684;2022-11-15T14:08:37;1.42;;;1.33;;
55224;SDS011;41091;49.400;8.684;2022-11-15T14:11:19;1.48;;;1.02;;
55224;SDS011;41091;49.400;8.684;2022-11-15T14:19:04;2.50;;;1.40;;
55224;SDS011;41091;49.400;8.684;2022-11-15T14:21:33;3.58;;;1.75;;
55224;SDS011;41091;49.400;8.684;2022-11-15T14:24:15;1.80;;;1.58;;
55224;SDS011;41091;49.400;8.684;2022-11-15T14:26:46;1.10;;;1.00;;
55224;SDS011;41091;49.400;8.684;2022-11-15T14:29:29;3.75;;;1.20;;
55224;SDS011;41091;49.400;8.684;2022-11-15T14:34:45;9.90;;;2.33;;
55224;SDS011;41091;49.400;8.684;2022-11-15T14:37:32;9.02;;;4.82;;
55224;SDS011;41091;49.400;8.684;2022-11-15T14:40:01;2.72;;;2.53;;
55224;SDS011;41091;49.400;8.684;2022-11-15T14:42:27;1.33;;;0.90;;
55224;SDS011;41091;49.400;8.684;2022-11-15T14:44:56;1.30;;;1.20;;
55224;SDS011;41091;49.400;8.684;2022-11-15T14:47:21;3.03;;;0.60;;
55224;SDS011;41091;49.400;8.684;2022-11-15T14:49:49;1.55;;;0.70;;
55224;SDS011;41091;49.400;8.684;2022-11-15T14:52:40;1.80;;;1.13;;
55224;SDS011;41091;49.400;8.684;2022-11-15T14:57:49;2.00;;;1.67;;
55224;SDS011;41091;49.400;8.684;2022-11-15T15:00:16;2.88;;;2.53;;
55224;SDS011;41091;49.400;8.684;2022-11-15T15:02:42;4.93;;;1.67;;
55224;SDS011;41091;49.400;8.684;2022-11-15T15:05:24;2.55;;;1.60;;
55224;SDS011;41091;49.400;8.684;2022-11-15T15:08:19;5.53;;;1.92;;
55224;SDS011;41091;49.400;8.684;2022-11-15T15:10:47;7.65;;;2.35;;
55224;SDS011;41091;49.400;8.684;2022-11-15T15:13:16;1.30;;;1.30;;
55224;SDS011;41091;49.400;8.684;2022-11-15T15:15:47;1.85;;;1.67;;
55224;SDS011;41091;49.400;8.684;2022-11-15T15:18:16;3.35;;;1.67;;
55224;SDS011;41091;49.400;8.684;2022-11-15T15:20:42;1.80;;;1.38;;
55224;SDS011;41091;49.400;8.684;2022-11-15T15:23:15;3.92;;;1.25;;
55224;SDS011;41091;49.400;8.684;2022-11-15T15:25:44;1.67;;;1.58;;
55224;SDS011;41091;49.400;8.684;2022-11-15T15:28:11;2.08;;;1.40;;
55224;SDS011;41091;49.400;8.684;2022-11-15T15:30:37;1.88;;;1.70;;
55224;SDS011;41091;49.400;8.684;2022-11-15T15:33:02;1.63;;;1.27;;
55224;SDS011;41091;49.400;8.684;2022-11-15T15:35:29;4.03;;;1.55;;
55224;SDS011;41091;49.400;8.684;2022-11-15T15:37:56;4.03;;;1.52;;
55224;SDS011;41091;49.400;8.684;2022-11-15T15:40:21;9.73;;;1.50;;
55224;SDS011;41091;49.400;8.684;2022-11-15T15:42:48;3.67;;;3.15;;
55224;SDS011;41091;49.400;8.684;2022-11-15T15:45:14;2.50;;;1.80;;
55224;SDS011;41091;49.400;8.684;2022-11-15T15:47:40;1.52;;;1.48;;
55224;SDS011;41091;49.400;8.684;2022-11-15T15:50:17;2.92;;;1.70;;
55224;SDS011;41091;49.400;8.684;2022-11-15T15:52:44;2.92;;;2.22;;
55224;SDS011;41091;49.400;8.684;2022-11-15T15:55:10;2.08;;;1.67;;
55224;SDS011;41091;49.400;8.684;2022-11-15T15:57:35;2.55;;;1.83;;
55224;SDS011;41091;49.400;8.684;2022-11-15T16:00:01;5.13;;;1.33;;
55224;SDS011;41091;49.400;8.684;2022-11-15T16:02:31;1.50;;;1.40;;
55224;SDS011;41091;49.400;8.684;2022-11-15T16:04:56;2.60;;;1.70;;
55224;SDS011;41091;49.400;8.684;2022-11-15T16:07:22;4.28;;;1.55;;
55224;SDS011;41091;49.400;8.684;2022-11-15T16:09:50;4.32;;;2.15;;
55224;SDS011;41091;49.400;8.684;2022-11-15T16:12:24;4.18;;;1.67;;
55224;SDS011;41091;49.400;8.684;2022-11-15T16:14:50;4.15;;;2.03;;
55224;SDS011;41091;49.400;8.684;2022-11-15T16:17:17;2.92;;;1.48;;
55224;SDS011;41091;49.400;8.684;2022-11-15T16:19:44;4.80;;;1.95;;
55224;SDS011;41091;49.400;8.684;2022-11-15T16:22:09;6.32;;;1.27;;
55224;SDS011;41091;49.400;8.684;2022-11-15T16:24:37;4.68;;;2.00;;
55224;SDS011;41091;49.400;8.684;2022-11-15T16:27:05;6.72;;;2.00;;
55224;SDS011;41091;49.400;8.684;2022-11-15T16:29:34;5.07;;;1.75;;
55224;SDS011;41091;49.400;8.684;2022-11-15T16:32:00;1.77;;;1.67;;
55224;SDS011;41091;49.400;8.684;2022-11-15T16:34:25;2.92;;;1.60;;
55224;SDS011;41091;49.400;8.684;2022-11-15T16:36:50;3.35;;;1.67;;
55224;SDS011;41091;49.400;8.684;2022-11-15T16:39:16;1.48;;;1.38;;
55224;SDS011;41091;49.400;8.684;2022-11-15T16:41:43;2.17;;;1.30;;
55224;SDS011;41091;49.400;8.684;2022-11-15T16:44:11;1.35;;;1.35;;
55224;SDS011;41091;49.400;8.684;2022-11-15T16:46:40;1.40;;;1.30;;
55224;SDS011;41091;49.400;8.684;2022-11-15T16:49:10;2.17;;;1.88;;
55224;SDS011;41091;49.400;8.684;2022-11-15T16:51:39;1.60;;;1.50;;
55224;SDS011;41091;49.400;8.684;2022-11-15T16:54:14;1.83;;;1.45;;
55224;SDS011;41091;49.400;8.684;2022-11-15T16:56:42;8.80;;;1.58;;
55224;SDS011;41091;49.400;8.684;2022-11-15T16:59:08;4.88;;;1.45;;
55224;SDS011;41091;49.400;8.684;2022-11-15T17:01:38;2.80;;;1.70;;
55224;SDS011;41091;49.400;8.684;2022-11-15T17:04:11;2.50;;;2.30;;
55224;SDS011;41091;49.400;8.684;2022-11-15T17:06:37;3.63;;;1.38;;
55224;SDS011;41091;49.400;8.684;2022-11-15T17:09:04;5.05;;;1.80;;
55224;SDS011;41091;49.400;8.684;2022-11-15T17:11:30;2.20;;;1.90;;
55224;SDS011;41091;49.400;8.684;2022-11-15T17:13:58;3.30;;;2.30;;
55224;SDS011;41091;49.400;8.684;2022-11-15T17:16:24;4.22;;;1.45;;
55224;SDS011;41091;49.400;8.684;2022-11-15T17:18:50;3.13;;;1.80;;
55224;SDS011;41091;49.400;8.684;2022-11-15T17:21:21;4.22;;;1.40;;
55224;SDS011;41091;49.400;8.684;2022-11-15T17:23:46;1.65;;;1.55;;
55224;SDS011;41091;49.400;8.684;2022-11-15T17:26:12;1.65;;;1.40;;
55224;SDS011;41091;49.400;8.684;2022-11-15T17:28:40;5.63;;;3.50;;
55224;SDS011;41091;49.400;8.684;2022-11-15T17:31:06;2.83;;;2.63;;